createdAt,value
2017-10-29T00:00:18.959Z,0
2017-10-29T00:01:18.254Z,0
2017-10-29T00:02:18.229Z,0
2017-10-29T00:03:18.564Z,0
2017-10-29T00:04:18.231Z,0
2017-10-29T00:05:18.544Z,0
2017-10-29T00:06:18.185Z,0
2017-10-29T00:07:18.509Z,0
2017-10-29T00:08:18.151Z,0
2017-10-29T00:09:17.808Z,0
2017-10-29T00:10:18.125Z,0
2017-10-29T00:11:18.790Z,0
2017-10-29T00:12:18.444Z,0
2017-10-29T00:13:17.743Z,0
2017-10-29T00:14:18.272Z,0
2017-10-29T00:15:18.397Z,0
2017-10-29T00:16:18.071Z,0
2017-10-29T00:17:18.045Z,0
2017-10-29T00:18:18.367Z,0
2017-10-29T00:19:18.010Z,0
2017-10-29T00:20:17.670Z,0
2017-10-29T00:21:18.343Z,0
2017-10-29T00:22:17.970Z,0
2017-10-29T00:23:17.620Z,0
2017-10-29T00:24:17.596Z,0
2017-10-29T00:25:17.608Z,0
2017-10-29T00:26:18.601Z,0
2017-10-29T00:27:18.255Z,0
2017-10-29T00:28:18.589Z,0
2017-10-29T00:29:18.243Z,0
2017-10-29T00:30:17.884Z,0
2017-10-29T00:31:17.874Z,0
2017-10-29T00:32:17.858Z,0
2017-10-29T00:33:17.828Z,0
2017-10-29T00:34:18.176Z,0
2017-10-29T00:35:18.162Z,0
2017-10-29T00:36:18.140Z,0
2017-10-29T00:37:17.792Z,0
2017-10-29T00:38:17.771Z,0
2017-10-29T00:39:18.102Z,0
2017-10-29T00:40:17.389Z,0
2017-10-29T00:41:17.722Z,0
2017-10-29T00:42:17.709Z,0
2017-10-29T00:43:17.718Z,0
2017-10-29T00:44:18.032Z,0
2017-10-29T00:45:18.005Z,0
2017-10-29T00:46:17.318Z,0
2017-10-29T00:47:17.680Z,0
2017-10-29T00:48:18.324Z,0
2017-10-29T00:49:17.634Z,0
2017-10-29T00:50:17.947Z,0
2017-10-29T00:51:17.604Z,0
2017-10-29T00:52:17.581Z,0
2017-10-29T00:53:17.907Z,0
2017-10-29T00:54:17.889Z,0
2017-10-29T00:55:17.907Z,0
2017-10-29T00:56:17.182Z,0
2017-10-29T00:57:18.234Z,0
2017-10-29T00:58:17.506Z,0
2017-10-29T00:59:17.484Z,0
2017-10-29T01:00:17.867Z,0
2017-10-29T01:01:17.807Z,0
2017-10-29T01:02:17.788Z,0
2017-10-29T01:03:17.434Z,0
2017-10-29T01:04:17.786Z,0
2017-10-29T01:05:17.405Z,0
2017-10-29T01:06:17.409Z,0
2017-10-29T01:07:17.724Z,0
2017-10-29T01:08:17.729Z,0
2017-10-29T01:09:17.699Z,0
2017-10-29T01:10:17.346Z,0
2017-10-29T01:11:18.023Z,0
2017-10-29T01:12:17.335Z,0
2017-10-29T01:13:17.644Z,0
2017-10-29T01:14:17.292Z,0
2017-10-29T01:15:17.302Z,0
2017-10-29T01:16:17.964Z,0
2017-10-29T01:17:17.958Z,0
2017-10-29T01:18:17.621Z,0
2017-10-29T01:19:16.903Z,0
2017-10-29T01:20:17.565Z,0
2017-10-29T01:21:17.214Z,0
2017-10-29T01:22:17.555Z,0
2017-10-29T01:23:17.190Z,0
2017-10-29T01:24:17.532Z,0
2017-10-29T01:25:17.490Z,0
2017-10-29T01:26:17.858Z,0
2017-10-29T01:27:16.787Z,0
2017-10-29T01:28:17.140Z,0
2017-10-29T01:29:17.103Z,0
2017-10-29T01:30:17.453Z,0
2017-10-29T01:31:17.077Z,0
2017-10-29T01:32:17.069Z,0
2017-10-29T01:33:17.051Z,0
2017-10-29T01:34:17.052Z,0
2017-10-29T01:35:17.399Z,0
2017-10-29T01:36:17.056Z,0
2017-10-29T01:37:17.003Z,0
2017-10-29T01:38:17.333Z,0
2017-10-29T01:39:17.316Z,0
2017-10-29T01:40:16.973Z,0
2017-10-29T01:41:17.298Z,0
2017-10-29T01:42:17.290Z,0
2017-10-29T01:43:17.264Z,0
2017-10-29T01:44:17.266Z,0
2017-10-29T01:45:16.563Z,0
2017-10-29T01:46:16.556Z,0
2017-10-29T01:47:17.570Z,0
2017-10-29T01:48:17.235Z,0
2017-10-29T01:49:17.196Z,0
2017-10-29T01:50:16.557Z,0
2017-10-29T01:51:17.187Z,0
2017-10-29T01:52:17.164Z,0
2017-10-29T01:53:16.460Z,0
2017-10-29T01:54:17.156Z,0
2017-10-29T01:55:17.129Z,0
2017-10-29T01:56:16.762Z,0
2017-10-29T01:57:16.764Z,0
2017-10-29T01:58:17.087Z,0
2017-10-29T01:59:17.102Z,0
2017-10-29T02:00:16.716Z,0
2017-10-29T02:01:16.391Z,0
2017-10-29T02:02:17.028Z,0
2017-10-29T02:03:17.370Z,0
2017-10-29T02:04:16.678Z,0
2017-10-29T02:05:16.656Z,0
2017-10-29T02:06:16.314Z,0
2017-10-29T02:07:16.631Z,0
2017-10-29T02:08:16.963Z,0
2017-10-29T02:09:16.598Z,0
2017-10-29T02:10:16.989Z,0
2017-10-29T02:11:16.232Z,0
2017-10-29T02:12:16.587Z,0
2017-10-29T02:13:16.564Z,0
2017-10-29T02:14:17.223Z,0
2017-10-29T02:15:16.865Z,0
2017-10-29T02:16:16.872Z,0
2017-10-29T02:17:16.849Z,0
2017-10-29T02:18:16.496Z,0
2017-10-29T02:19:17.190Z,0
2017-10-29T02:20:16.819Z,0
2017-10-29T02:21:16.468Z,0
2017-10-29T02:22:17.144Z,0
2017-10-29T02:23:16.779Z,0
2017-10-29T02:24:16.440Z,0
2017-10-29T02:25:16.088Z,0
2017-10-29T02:26:16.406Z,0
2017-10-29T02:27:16.398Z,0
2017-10-29T02:28:16.383Z,0
2017-10-29T02:29:16.729Z,0
2017-10-29T02:30:16.343Z,0
2017-10-29T02:31:16.715Z,0
2017-10-29T02:32:17.029Z,0
2017-10-29T02:33:16.324Z,0
2017-10-29T02:34:15.973Z,0
2017-10-29T02:35:16.620Z,0
2017-10-29T02:36:16.618Z,0
2017-10-29T02:37:16.971Z,0
2017-10-29T02:38:16.601Z,0
2017-10-29T02:39:16.234Z,0
2017-10-29T02:40:16.584Z,0
2017-10-29T02:41:16.553Z,0
2017-10-29T02:42:16.560Z,0
2017-10-29T02:43:16.868Z,0
2017-10-29T02:44:16.172Z,0
2017-10-29T02:45:16.501Z,0
2017-10-29T02:46:16.165Z,0
2017-10-29T02:47:16.163Z,0
2017-10-29T02:48:15.781Z,0
2017-10-29T02:49:16.110Z,0
2017-10-29T02:50:16.112Z,0
2017-10-29T02:51:16.104Z,0
2017-10-29T02:52:16.082Z,0
2017-10-29T02:53:16.062Z,0
2017-10-29T02:54:16.407Z,0
2017-10-29T02:55:16.736Z,0
2017-10-29T02:56:16.058Z,0
2017-10-29T02:57:16.735Z,0
2017-10-29T02:58:16.001Z,0
2017-10-29T02:59:16.332Z,0
2017-10-29T03:00:15.646Z,0
2017-10-29T03:01:16.307Z,0
2017-10-29T03:02:15.952Z,0
2017-10-29T03:03:16.294Z,0
2017-10-29T03:04:16.282Z,0
2017-10-29T03:05:15.919Z,0
2017-10-29T03:06:16.591Z,0
2017-10-29T03:07:15.891Z,0
2017-10-29T03:08:15.888Z,0
2017-10-29T03:09:15.882Z,0
2017-10-29T03:10:16.214Z,0
2017-10-29T03:11:16.190Z,0
2017-10-29T03:12:15.853Z,0
2017-10-29T03:13:16.161Z,0
2017-10-29T03:14:16.544Z,0
2017-10-29T03:15:15.812Z,0
2017-10-29T03:16:16.128Z,0
2017-10-29T03:17:16.125Z,0
2017-10-29T03:18:16.121Z,0
2017-10-29T03:19:16.090Z,0
2017-10-29T03:20:15.758Z,0
2017-10-29T03:21:16.069Z,0
2017-10-29T03:22:15.715Z,0
2017-10-29T03:23:15.719Z,0
2017-10-29T03:24:15.692Z,0
2017-10-29T03:25:15.695Z,0
2017-10-29T03:26:15.717Z,0
2017-10-29T03:27:15.682Z,0
2017-10-29T03:28:15.644Z,0
2017-10-29T03:29:16.005Z,0
2017-10-29T03:30:16.176Z,0
2017-10-29T03:31:16.326Z,0
2017-10-29T03:32:15.977Z,0
2017-10-29T03:33:15.261Z,0
2017-10-29T03:34:15.571Z,0
2017-10-29T03:35:15.218Z,0
2017-10-29T03:36:15.891Z,0
2017-10-29T03:37:15.876Z,0
2017-10-29T03:38:15.877Z,0
2017-10-29T03:39:15.528Z,0
2017-10-29T03:40:16.226Z,0
2017-10-29T03:41:15.835Z,0
2017-10-29T03:42:15.169Z,0
2017-10-29T03:43:15.125Z,0
2017-10-29T03:44:15.112Z,0
2017-10-29T03:45:16.130Z,0
2017-10-29T03:46:15.786Z,0
2017-10-29T03:47:15.796Z,0
2017-10-29T03:48:15.794Z,0
2017-10-29T03:49:15.749Z,0
2017-10-29T03:50:15.045Z,0
2017-10-29T03:51:16.073Z,0
2017-10-29T03:52:15.025Z,0
2017-10-29T03:53:15.690Z,0
2017-10-29T03:54:15.007Z,0
2017-10-29T03:55:15.669Z,0
2017-10-29T03:56:15.339Z,0
2017-10-29T03:57:15.316Z,0
2017-10-29T03:58:15.291Z,0
2017-10-29T03:59:15.629Z,0
2017-10-29T04:00:15.268Z,0
2017-10-29T04:01:15.265Z,0
2017-10-29T04:02:14.930Z,0
2017-10-29T04:03:15.576Z,0
2017-10-29T04:04:14.892Z,0
2017-10-29T04:05:14.892Z,0
2017-10-29T04:06:15.213Z,0
2017-10-29T04:07:14.844Z,0
2017-10-29T04:08:15.179Z,0
2017-10-29T04:09:15.169Z,0
2017-10-29T04:10:15.491Z,0
2017-10-29T04:11:14.820Z,0
2017-10-29T04:12:15.127Z,0
2017-10-29T04:13:15.114Z,0
2017-10-29T04:14:15.106Z,0
2017-10-29T04:15:15.780Z,0
2017-10-29T04:16:15.801Z,0
2017-10-29T04:17:15.414Z,0
2017-10-29T04:18:15.739Z,0
2017-10-29T04:19:15.747Z,0
2017-10-29T04:20:14.702Z,0
2017-10-29T04:21:15.398Z,0
2017-10-29T04:22:15.016Z,0
2017-10-29T04:23:15.366Z,0
2017-10-29T04:24:14.995Z,0
2017-10-29T04:25:15.006Z,0
2017-10-29T04:26:14.964Z,0
2017-10-29T04:27:15.319Z,0
2017-10-29T04:28:14.603Z,0
2017-10-29T04:29:14.946Z,0
2017-10-29T04:30:15.605Z,0
2017-10-29T04:31:14.940Z,0
2017-10-29T04:32:14.902Z,0
2017-10-29T04:33:14.543Z,0
2017-10-29T04:34:15.214Z,0
2017-10-29T04:35:14.857Z,0
2017-10-29T04:36:14.859Z,0
2017-10-29T04:37:15.184Z,0
2017-10-29T04:38:15.167Z,0
2017-10-29T04:39:14.498Z,0
2017-10-29T04:40:14.854Z,0
2017-10-29T04:41:14.812Z,0
2017-10-29T04:42:14.985Z,0
2017-10-29T04:43:15.116Z,0
2017-10-29T04:44:14.772Z,0
2017-10-29T04:45:15.161Z,0
2017-10-29T04:46:15.092Z,0
2017-10-29T04:47:14.726Z,0
2017-10-29T04:48:14.369Z,0
2017-10-29T04:49:14.701Z,0
2017-10-29T04:50:15.374Z,0
2017-10-29T04:51:14.714Z,0
2017-10-29T04:52:15.028Z,0
2017-10-29T04:53:15.005Z,0
2017-10-29T04:54:14.640Z,0
2017-10-29T04:55:14.967Z,0
2017-10-29T04:56:15.305Z,0
2017-10-29T04:57:14.955Z,0
2017-10-29T04:58:14.935Z,0
2017-10-29T04:59:14.952Z,0
2017-10-29T05:00:14.598Z,0
2017-10-29T05:01:14.217Z,0
2017-10-29T05:02:15.246Z,0
2017-10-29T05:03:14.888Z,0
2017-10-29T05:04:14.522Z,0
2017-10-29T05:05:15.560Z,0
2017-10-29T05:06:15.213Z,0
2017-10-29T05:07:15.174Z,0
2017-10-29T05:08:14.143Z,0
2017-10-29T05:09:14.470Z,0
2017-10-29T05:10:14.147Z,0
2017-10-29T05:11:14.446Z,0
2017-10-29T05:12:14.777Z,0
2017-10-29T05:13:14.777Z,0
2017-10-29T05:14:14.442Z,0
2017-10-29T05:15:14.457Z,0
2017-10-29T05:16:14.048Z,0
2017-10-29T05:17:14.396Z,0
2017-10-29T05:18:14.368Z,0
2017-10-29T05:19:14.369Z,0
2017-10-29T05:20:14.342Z,0
2017-10-29T05:21:14.014Z,0
2017-10-29T05:22:14.323Z,0
2017-10-29T05:23:14.336Z,0
2017-10-29T05:24:14.657Z,0
2017-10-29T05:25:14.655Z,0
2017-10-29T05:26:14.643Z,0
2017-10-29T05:27:13.944Z,0
2017-10-29T05:28:14.591Z,0
2017-10-29T05:29:14.603Z,0
2017-10-29T05:30:14.233Z,0
2017-10-29T05:31:13.878Z,0
2017-10-29T05:32:14.209Z,0
2017-10-29T05:33:14.895Z,0
2017-10-29T05:34:14.201Z,0
2017-10-29T05:35:14.559Z,0
2017-10-29T05:36:14.190Z,0
2017-10-29T05:37:13.982Z,0
2017-10-29T05:38:13.833Z,0
2017-10-29T05:39:14.120Z,0
2017-10-29T05:40:14.111Z,0
2017-10-29T05:41:14.129Z,0
2017-10-29T05:42:14.108Z,0
2017-10-29T05:43:13.782Z,0
2017-10-29T05:44:14.425Z,0
2017-10-29T05:45:13.726Z,0
2017-10-29T05:46:14.392Z,0
2017-10-29T05:47:14.376Z,0
2017-10-29T05:48:14.393Z,0
2017-10-29T05:49:14.350Z,0
2017-10-29T05:50:13.993Z,0
2017-10-29T05:51:13.980Z,0
2017-10-29T05:52:13.970Z,0
2017-10-29T05:53:13.974Z,0
2017-10-29T05:54:14.410Z,0
2017-10-29T05:55:13.591Z,0
2017-10-29T05:56:13.936Z,0
2017-10-29T05:57:13.925Z,0
2017-10-29T05:58:14.240Z,0
2017-10-29T05:59:13.896Z,0
2017-10-29T06:00:13.902Z,0
2017-10-29T06:01:14.601Z,0
2017-10-29T06:02:14.233Z,0
2017-10-29T06:03:13.497Z,0
2017-10-29T06:04:13.500Z,0
2017-10-29T06:05:14.496Z,0
2017-10-29T06:06:13.833Z,0
2017-10-29T06:07:13.816Z,0
2017-10-29T06:08:14.505Z,0
2017-10-29T06:09:13.777Z,0
2017-10-29T06:10:14.091Z,0
2017-10-29T06:11:13.739Z,0
2017-10-29T06:12:13.726Z,0
2017-10-29T06:13:14.068Z,5
2017-10-29T06:14:14.045Z,5
2017-10-29T06:15:13.357Z,5
2017-10-29T06:16:13.676Z,5
2017-10-29T06:17:14.006Z,5
2017-10-29T06:18:13.994Z,5
2017-10-29T06:19:13.985Z,10
2017-10-29T06:20:13.634Z,15
2017-10-29T06:21:13.961Z,25
2017-10-29T06:22:13.967Z,25
2017-10-29T06:23:13.927Z,25
2017-10-29T06:24:14.314Z,30
2017-10-29T06:25:13.582Z,30
2017-10-29T06:26:13.913Z,30
2017-10-29T06:27:13.555Z,30
2017-10-29T06:28:13.183Z,30
2017-10-29T06:29:13.516Z,30
2017-10-29T06:30:13.511Z,35
2017-10-29T06:31:14.173Z,35
2017-10-29T06:32:13.860Z,40
2017-10-29T06:33:13.816Z,40
2017-10-29T06:34:13.458Z,40
2017-10-29T06:35:13.778Z,50
2017-10-29T06:36:13.420Z,65
2017-10-29T06:37:13.802Z,90
2017-10-29T06:38:13.059Z,60
2017-10-29T06:39:13.742Z,45
2017-10-29T06:40:13.438Z,40
2017-10-29T06:41:13.384Z,55
2017-10-29T06:42:13.688Z,55
2017-10-29T06:43:13.007Z,30
2017-10-29T06:44:13.660Z,15
2017-10-29T06:45:14.007Z,5
2017-10-29T06:46:13.360Z,5
2017-10-29T06:47:12.941Z,5
2017-10-29T06:48:12.940Z,10
2017-10-29T06:49:13.655Z,30
2017-10-29T06:50:13.268Z,30
2017-10-29T06:51:13.580Z,40
2017-10-29T06:52:13.218Z,30
2017-10-29T06:53:13.557Z,35
2017-10-29T06:54:12.886Z,40
2017-10-29T06:55:13.181Z,50
2017-10-29T06:56:13.171Z,60
2017-10-29T06:57:13.861Z,60
2017-10-29T06:58:13.143Z,50
2017-10-29T06:59:13.499Z,50
2017-10-29T07:00:13.830Z,65
2017-10-29T07:01:13.120Z,70
2017-10-29T07:02:13.100Z,65
2017-10-29T07:03:12.749Z,50
2017-10-29T07:04:13.065Z,60
2017-10-29T07:05:13.393Z,70
2017-10-29T07:06:13.392Z,60
2017-10-29T07:07:13.028Z,40
2017-10-29T07:08:12.689Z,40
2017-10-29T07:09:13.679Z,50
2017-10-29T07:10:12.644Z,30
2017-10-29T07:11:12.981Z,30
2017-10-29T07:12:12.980Z,25
2017-10-29T07:13:13.318Z,35
2017-10-29T07:14:12.943Z,40
2017-10-29T07:15:13.296Z,45
2017-10-29T07:16:13.629Z,45
2017-10-29T07:17:12.560Z,55
2017-10-29T07:18:12.913Z,65
2017-10-29T07:19:13.226Z,55
2017-10-29T07:20:12.929Z,55
2017-10-29T07:21:12.842Z,80
2017-10-29T07:22:13.162Z,90
2017-10-29T07:23:13.174Z,95
2017-10-29T07:24:13.846Z,115
2017-10-29T07:25:12.787Z,110
2017-10-29T07:26:13.446Z,95
2017-10-29T07:27:13.093Z,80
2017-10-29T07:28:13.437Z,70
2017-10-29T07:29:13.069Z,65
2017-10-29T07:30:13.060Z,65
2017-10-29T07:31:12.714Z,65
2017-10-29T07:32:12.699Z,70
2017-10-29T07:33:12.760Z,75
2017-10-29T07:34:13.340Z,90
2017-10-29T07:35:12.985Z,105
2017-10-29T07:36:12.300Z,100
2017-10-29T07:37:12.276Z,90
2017-10-29T07:38:12.942Z,95
2017-10-29T07:39:12.247Z,100
2017-10-29T07:40:12.940Z,105
2017-10-29T07:41:12.568Z,110
2017-10-29T07:42:12.211Z,100
2017-10-29T07:43:12.933Z,85
2017-10-29T07:44:13.560Z,80
2017-10-29T07:45:12.506Z,85
2017-10-29T07:46:12.496Z,85
2017-10-29T07:47:12.477Z,75
2017-10-29T07:48:12.839Z,75
2017-10-29T07:49:12.506Z,70
2017-10-29T07:50:12.161Z,70
2017-10-29T07:51:12.785Z,70
2017-10-29T07:52:12.769Z,75
2017-10-29T07:53:12.077Z,75
2017-10-29T07:54:12.397Z,80
2017-10-29T07:55:12.400Z,80
2017-10-29T07:56:13.034Z,85
2017-10-29T07:57:12.698Z,85
2017-10-29T07:58:12.348Z,85
2017-10-29T07:59:12.339Z,85
2017-10-29T08:00:12.346Z,90
2017-10-29T08:01:12.630Z,95
2017-10-29T08:02:12.636Z,90
2017-10-29T08:03:12.596Z,85
2017-10-29T08:04:12.240Z,90
2017-10-29T08:05:12.255Z,95
2017-10-29T08:06:12.912Z,95
2017-10-29T08:07:11.862Z,105
2017-10-29T08:08:12.189Z,105
2017-10-29T08:09:12.203Z,95
2017-10-29T08:10:12.859Z,100
2017-10-29T08:11:12.546Z,100
2017-10-29T08:12:13.208Z,125
2017-10-29T08:13:12.137Z,145
2017-10-29T08:14:11.768Z,145
2017-10-29T08:15:11.767Z,155
2017-10-29T08:16:11.751Z,140
2017-10-29T08:17:12.062Z,200
2017-10-29T08:18:12.728Z,135
2017-10-29T08:19:12.040Z,170
2017-10-29T08:20:11.675Z,195
2017-10-29T08:21:11.688Z,130
2017-10-29T08:22:11.695Z,195
2017-10-29T08:23:11.634Z,165
2017-10-29T08:24:11.989Z,180
2017-10-29T08:25:12.314Z,165
2017-10-29T08:26:11.992Z,190
2017-10-29T08:27:11.610Z,190
2017-10-29T08:28:11.566Z,150
2017-10-29T08:29:11.915Z,155
2017-10-29T08:30:11.879Z,185
2017-10-29T08:31:11.547Z,170
2017-10-29T08:32:12.553Z,210
2017-10-29T08:33:11.863Z,210
2017-10-29T08:34:11.498Z,170
2017-10-29T08:35:11.831Z,180
2017-10-29T08:36:12.561Z,175
2017-10-29T08:37:11.456Z,140
2017-10-29T08:38:11.890Z,160
2017-10-29T08:39:11.787Z,190
2017-10-29T08:40:12.425Z,190
2017-10-29T08:41:12.076Z,160
2017-10-29T08:42:12.396Z,125
2017-10-29T08:43:11.395Z,125
2017-10-29T08:44:12.036Z,205
2017-10-29T08:45:12.044Z,185
2017-10-29T08:46:11.998Z,205
2017-10-29T08:47:11.678Z,145
2017-10-29T08:48:11.739Z,120
2017-10-29T08:49:11.618Z,110
2017-10-29T08:50:11.620Z,175
2017-10-29T08:51:11.933Z,250
2017-10-29T08:52:11.240Z,180
2017-10-29T08:53:11.949Z,210
2017-10-29T08:54:11.211Z,180
2017-10-29T08:55:11.567Z,185
2017-10-29T08:56:12.219Z,155
2017-10-29T08:57:11.542Z,160
2017-10-29T08:58:11.499Z,175
2017-10-29T08:59:11.509Z,185
2017-10-29T09:00:11.495Z,125
2017-10-29T09:01:11.464Z,125
2017-10-29T09:02:11.796Z,110
2017-10-29T09:03:11.454Z,145
2017-10-29T09:04:12.102Z,135
2017-10-29T09:05:11.103Z,115
2017-10-29T09:06:11.735Z,165
2017-10-29T09:07:11.381Z,175
2017-10-29T09:08:11.747Z,170
2017-10-29T09:09:11.369Z,170
2017-10-29T09:10:11.698Z,210
2017-10-29T09:11:11.332Z,180
2017-10-29T09:12:11.317Z,205
2017-10-29T09:13:11.062Z,175
2017-10-29T09:14:11.968Z,150
2017-10-29T09:15:11.660Z,155
2017-10-29T09:16:11.643Z,190
2017-10-29T09:17:11.255Z,140
2017-10-29T09:18:11.236Z,140
2017-10-29T09:19:11.231Z,125
2017-10-29T09:20:11.222Z,140
2017-10-29T09:21:11.541Z,115
2017-10-29T09:22:11.542Z,120
2017-10-29T09:23:11.186Z,140
2017-10-29T09:24:11.158Z,135
2017-10-29T09:25:12.150Z,95
2017-10-29T09:26:11.474Z,110
2017-10-29T09:27:10.778Z,140
2017-10-29T09:28:11.473Z,185
2017-10-29T09:29:11.105Z,220
2017-10-29T09:30:11.796Z,205
2017-10-29T09:31:11.132Z,195
2017-10-29T09:32:11.432Z,140
2017-10-29T09:33:11.038Z,165
2017-10-29T09:34:10.685Z,210
2017-10-29T09:35:11.404Z,175
2017-10-29T09:36:11.035Z,165
2017-10-29T09:37:10.679Z,135
2017-10-29T09:38:10.679Z,180
2017-10-29T09:39:10.970Z,135
2017-10-29T09:40:11.136Z,140
2017-10-29T09:41:11.387Z,115
2017-10-29T09:42:10.583Z,105
2017-10-29T09:43:10.960Z,135
2017-10-29T09:44:10.894Z,145
2017-10-29T09:45:10.881Z,145
2017-10-29T09:46:11.213Z,165
2017-10-29T09:47:11.216Z,180
2017-10-29T09:48:11.193Z,195
2017-10-29T09:49:10.832Z,180
2017-10-29T09:50:10.862Z,160
2017-10-29T09:51:10.551Z,180
2017-10-29T09:52:10.788Z,135
2017-10-29T09:53:10.547Z,150
2017-10-29T09:54:10.446Z,190
2017-10-29T09:55:11.640Z,200
2017-10-29T09:56:11.497Z,180
2017-10-29T09:57:10.594Z,190
2017-10-29T09:58:10.804Z,210
2017-10-29T09:59:10.948Z,195
2017-10-29T10:00:11.070Z,165
2017-10-29T10:01:11.917Z,155
2017-10-29T10:02:10.500Z,145
2017-10-29T10:03:11.003Z,150
2017-10-29T10:04:11.456Z,175
2017-10-29T10:05:11.171Z,145
2017-10-29T10:06:10.954Z,140
2017-10-29T10:07:10.591Z,135
2017-10-29T10:08:10.950Z,145
2017-10-29T10:09:10.926Z,170
2017-10-29T10:10:10.579Z,200
2017-10-29T10:11:10.579Z,205
2017-10-29T10:12:10.867Z,185
2017-10-29T10:13:10.527Z,140
2017-10-29T10:14:10.862Z,105
2017-10-29T10:15:10.149Z,95
2017-10-29T10:16:10.821Z,85
2017-10-29T10:17:10.821Z,80
2017-10-29T10:18:10.790Z,80
2017-10-29T10:19:10.122Z,75
2017-10-29T10:20:10.773Z,85
2017-10-29T10:21:10.169Z,120
2017-10-29T10:22:10.754Z,135
2017-10-29T10:23:10.049Z,125
2017-10-29T10:24:10.414Z,115
2017-10-29T10:25:10.392Z,160
2017-10-29T10:26:10.690Z,115
2017-10-29T10:27:10.338Z,165
2017-10-29T10:28:09.978Z,165
2017-10-29T10:29:09.969Z,170
2017-10-29T10:30:10.657Z,170
2017-10-29T10:31:10.631Z,205
2017-10-29T10:32:10.615Z,195
2017-10-29T10:33:10.257Z,215
2017-10-29T10:34:10.244Z,250
2017-10-29T10:35:10.585Z,280
2017-10-29T10:36:10.233Z,230
2017-10-29T10:37:10.896Z,225
2017-10-29T10:38:10.203Z,185
2017-10-29T10:39:10.532Z,215
2017-10-29T10:40:10.520Z,260
2017-10-29T10:41:10.177Z,320
2017-10-29T10:42:10.144Z,320
2017-10-29T10:43:10.546Z,225
2017-10-29T10:44:10.135Z,180
2017-10-29T10:45:10.101Z,195
2017-10-29T10:46:10.433Z,175
2017-10-29T10:47:10.095Z,150
2017-10-29T10:48:09.717Z,160
2017-10-29T10:49:10.091Z,130
2017-10-29T10:50:10.419Z,110
2017-10-29T10:51:10.023Z,135
2017-10-29T10:52:09.684Z,90
2017-10-29T10:53:10.336Z,55
2017-10-29T10:54:09.645Z,50
2017-10-29T10:55:09.654Z,40
2017-10-29T10:56:09.955Z,40
2017-10-29T10:57:09.964Z,65
2017-10-29T10:58:09.955Z,110
2017-10-29T10:59:09.628Z,105
2017-10-29T11:00:10.651Z,120
2017-10-29T11:01:10.229Z,125
2017-10-29T11:02:10.214Z,145
2017-10-29T11:03:10.217Z,155
2017-10-29T11:04:09.840Z,155
2017-10-29T11:05:09.858Z,165
2017-10-29T11:06:10.165Z,160
2017-10-29T11:07:10.168Z,165
2017-10-29T11:08:10.477Z,155
2017-10-29T11:09:09.781Z,175
2017-10-29T11:10:10.453Z,170
2017-10-29T11:11:10.120Z,195
2017-10-29T11:12:09.736Z,230
2017-10-29T11:13:09.394Z,265
2017-10-29T11:14:10.054Z,280
2017-10-29T11:15:09.723Z,270
2017-10-29T11:16:10.371Z,285
2017-10-29T11:17:10.040Z,275
2017-10-29T11:18:09.340Z,280
2017-10-29T11:19:10.310Z,270
2017-10-29T11:20:09.630Z,225
2017-10-29T11:21:09.616Z,185
2017-10-29T11:22:09.598Z,175
2017-10-29T11:23:09.584Z,175
2017-10-29T11:24:09.240Z,190
2017-10-29T11:25:09.225Z,210
2017-10-29T11:26:09.533Z,225
2017-10-29T11:27:09.216Z,220
2017-10-29T11:28:09.273Z,240
2017-10-29T11:29:09.516Z,245
2017-10-29T11:30:09.144Z,240
2017-10-29T11:31:09.492Z,250
2017-10-29T11:32:09.131Z,250
2017-10-29T11:33:10.149Z,230
2017-10-29T11:34:09.453Z,250
2017-10-29T11:35:09.420Z,220
2017-10-29T11:36:10.091Z,250
2017-10-29T11:37:09.427Z,260
2017-10-29T11:38:09.754Z,250
2017-10-29T11:39:09.385Z,250
2017-10-29T11:40:09.708Z,260
2017-10-29T11:41:09.680Z,255
2017-10-29T11:42:09.317Z,250
2017-10-29T11:43:08.959Z,245
2017-10-29T11:44:09.302Z,225
2017-10-29T11:45:09.274Z,250
2017-10-29T11:46:09.299Z,260
2017-10-29T11:47:09.969Z,265
2017-10-29T11:48:08.938Z,260
2017-10-29T11:49:09.569Z,240
2017-10-29T11:50:09.555Z,225
2017-10-29T11:51:10.212Z,195
2017-10-29T11:52:09.204Z,230
2017-10-29T11:53:08.841Z,265
2017-10-29T11:54:09.178Z,265
2017-10-29T11:55:09.847Z,190
2017-10-29T11:56:08.796Z,170
2017-10-29T11:57:08.782Z,145
2017-10-29T11:58:09.146Z,85
2017-10-29T11:59:09.464Z,75
2017-10-29T12:00:08.745Z,80
2017-10-29T12:01:09.075Z,75
2017-10-29T12:02:09.400Z,75
2017-10-29T12:03:09.397Z,110
2017-10-29T12:04:09.089Z,155
2017-10-29T12:05:09.013Z,105
2017-10-29T12:06:09.362Z,85
2017-10-29T12:07:08.999Z,100
2017-10-29T12:08:09.338Z,130
2017-10-29T12:09:09.727Z,190
2017-10-29T12:10:08.981Z,265
2017-10-29T12:11:09.298Z,250
2017-10-29T12:12:08.643Z,245
2017-10-29T12:13:08.586Z,230
2017-10-29T12:14:09.241Z,205
2017-10-29T12:15:08.560Z,200
2017-10-29T12:16:08.878Z,215
2017-10-29T12:17:08.509Z,220
2017-10-29T12:18:08.524Z,225
2017-10-29T12:19:09.168Z,215
2017-10-29T12:20:08.507Z,205
2017-10-29T12:21:09.485Z,115
2017-10-29T12:22:08.465Z,140
2017-10-29T12:23:08.793Z,135
2017-10-29T12:24:08.759Z,120
2017-10-29T12:25:08.751Z,120
2017-10-29T12:26:08.398Z,105
2017-10-29T12:27:08.742Z,120
2017-10-29T12:28:08.745Z,145
2017-10-29T12:29:08.733Z,165
2017-10-29T12:30:08.740Z,165
2017-10-29T12:31:08.658Z,165
2017-10-29T12:32:09.032Z,170
2017-10-29T12:33:09.306Z,170
2017-10-29T12:34:08.659Z,165
2017-10-29T12:35:08.621Z,170
2017-10-29T12:36:08.605Z,170
2017-10-29T12:37:08.603Z,175
2017-10-29T12:38:08.564Z,185
2017-10-29T12:39:08.570Z,205
2017-10-29T12:40:08.886Z,220
2017-10-29T12:41:08.902Z,210
2017-10-29T12:42:08.164Z,180
2017-10-29T12:43:08.159Z,160
2017-10-29T12:44:08.143Z,145
2017-10-29T12:45:08.819Z,160
2017-10-29T12:46:08.453Z,145
2017-10-29T12:47:08.441Z,140
2017-10-29T12:48:09.113Z,170
2017-10-29T12:49:08.413Z,200
2017-10-29T12:50:08.407Z,265
2017-10-29T12:51:08.396Z,200
2017-10-29T12:52:08.364Z,185
2017-10-29T12:53:08.699Z,180
2017-10-29T12:54:08.706Z,165
2017-10-29T12:55:07.991Z,165
2017-10-29T12:56:07.972Z,160
2017-10-29T12:57:09.005Z,175
2017-10-29T12:58:08.652Z,155
2017-10-29T12:59:07.933Z,150
2017-10-29T13:00:08.263Z,140
2017-10-29T13:01:08.945Z,95
2017-10-29T13:02:08.241Z,115
2017-10-29T13:03:08.220Z,140
2017-10-29T13:04:08.552Z,180
2017-10-29T13:05:08.230Z,200
2017-10-29T13:06:07.839Z,170
2017-10-29T13:07:08.197Z,115
2017-10-29T13:08:07.825Z,130
2017-10-29T13:09:07.801Z,120
2017-10-29T13:10:08.825Z,100
2017-10-29T13:11:07.770Z,105
2017-10-29T13:12:08.787Z,120
2017-10-29T13:13:08.083Z,110
2017-10-29T13:14:09.113Z,95
2017-10-29T13:15:07.743Z,105
2017-10-29T13:16:08.726Z,120
2017-10-29T13:17:08.375Z,125
2017-10-29T13:18:08.372Z,110
2017-10-29T13:19:07.695Z,105
2017-10-29T13:20:07.651Z,95
2017-10-29T13:21:08.331Z,100
2017-10-29T13:22:08.304Z,90
2017-10-29T13:23:07.612Z,120
2017-10-29T13:24:07.940Z,115
2017-10-29T13:25:08.264Z,85
2017-10-29T13:26:07.925Z,65
2017-10-29T13:27:08.253Z,65
2017-10-29T13:28:08.252Z,70
2017-10-29T13:29:08.579Z,75
2017-10-29T13:30:07.860Z,75
2017-10-29T13:31:08.180Z,75
2017-10-29T13:32:08.508Z,80
2017-10-29T13:33:07.817Z,85
2017-10-29T13:34:07.806Z,100
2017-10-29T13:35:07.442Z,140
2017-10-29T13:36:07.449Z,120
2017-10-29T13:37:07.754Z,170
2017-10-29T13:38:08.425Z,160
2017-10-29T13:39:08.415Z,135
2017-10-29T13:40:07.723Z,170
2017-10-29T13:41:07.361Z,185
2017-10-29T13:42:07.692Z,115
2017-10-29T13:43:08.017Z,100
2017-10-29T13:44:08.015Z,100
2017-10-29T13:45:07.651Z,105
2017-10-29T13:46:07.288Z,95
2017-10-29T13:47:07.617Z,100
2017-10-29T13:48:07.942Z,95
2017-10-29T13:49:07.935Z,110
2017-10-29T13:50:08.262Z,100
2017-10-29T13:51:07.223Z,100
2017-10-29T13:52:07.551Z,110
2017-10-29T13:53:07.535Z,125
2017-10-29T13:54:07.874Z,105
2017-10-29T13:55:07.164Z,100
2017-10-29T13:56:07.512Z,115
2017-10-29T13:57:07.490Z,115
2017-10-29T13:58:07.839Z,95
2017-10-29T13:59:07.110Z,85
2017-10-29T14:00:07.438Z,85
2017-10-29T14:01:08.126Z,80
2017-10-29T14:02:07.753Z,80
2017-10-29T14:03:07.738Z,90
2017-10-29T14:04:07.385Z,90
2017-10-29T14:05:07.045Z,95
2017-10-29T14:06:07.015Z,85
2017-10-29T14:07:06.999Z,85
2017-10-29T14:08:07.325Z,85
2017-10-29T14:09:07.307Z,80
2017-10-29T14:10:06.959Z,80
2017-10-29T14:11:07.280Z,85
2017-10-29T14:12:07.276Z,85
2017-10-29T14:13:07.673Z,85
2017-10-29T14:14:07.253Z,85
2017-10-29T14:15:06.935Z,90
2017-10-29T14:16:07.905Z,75
2017-10-29T14:17:07.205Z,75